sensor_id;sensor_type;location;lat;lon;timestamp;pressure;altitude;pressure_sealevel;temperature
24201;BMP280;2801;50.972;7.856;2023-03-20T00:02:21;97741.31;;;10.39
24201;BMP280;2801;50.972;7.856;2023-03-20T00:04:49;97745.56;;;10.40
24201;BMP280;2801;50.972;7.856;2023-03-20T00:07:16;97746.34;;;10.41
24201;BMP280;2801;50.972;7.856;2023-03-20T00:09:42;97735.63;;;10.41
24201;BMP280;2801;50.972;7.856;2023-03-20T00:12:16;97736.88;;;10.43
24201;BMP280;2801;50.972;7.856;2023-03-20T00:14:44;97733.91;;;10.45
24201;BMP280;2801;50.972;7.856;2023-03-20T00:17:18;97741.31;;;10.48
24201;BMP280;2801;50.972;7.856;2023-03-20T00:19:46;97751.72;;;10.49
24201;BMP280;2801;50.972;7.856;2023-03-20T00:22:13;97744.00;;;10.48
24201;BMP280;2801;50.972;7.856;2023-03-20T00:24:39;97749.03;;;10.49
24201;BMP280;2801;50.972;7.856;2023-03-20T00:27:12;97747.78;;;10.47
24201;BMP280;2801;50.972;7.856;2023-03-20T00:29:40;97747.00;;;10.46
24201;BMP280;2801;50.972;7.856;2023-03-20T00:32:11;97740.50;;;10.47
24201;BMP280;2801;50.972;7.856;2023-03-20T00:34:38;97748.56;;;10.47
24201;BMP280;2801;50.972;7.856;2023-03-20T00:37:05;97744.78;;;10.48
24201;BMP280;2801;50.972;7.856;2023-03-20T00:39:32;97754.41;;;10.49
24201;BMP280;2801;50.972;7.856;2023-03-20T00:42:03;97750.16;;;10.48
24201;BMP280;2801;50.972;7.856;2023-03-20T00:44:37;97752.53;;;10.50
24201;BMP280;2801;50.972;7.856;2023-03-20T00:47:16;97749.03;;;10.49
24201;BMP280;2801;50.972;7.856;2023-03-20T00:49:47;97755.19;;;10.50
24201;BMP280;2801;50.972;7.856;2023-03-20T00:52:21;97757.41;;;10.48
24201;BMP280;2801;50.972;7.856;2023-03-20T00:54:48;97759.75;;;10.49
24201;BMP280;2801;50.972;7.856;2023-03-20T00:57:56;97757.25;;;10.44
24201;BMP280;2801;50.972;7.856;2023-03-20T01:00:42;97755.19;;;10.41
24201;BMP280;2801;50.972;7.856;2023-03-20T01:03:16;97764.50;;;10.44
24201;BMP280;2801;50.972;7.856;2023-03-20T01:05:44;97767.47;;;10.42
24201;BMP280;2801;50.972;7.856;2023-03-20T01:08:19;97765.75;;;10.46
24201;BMP280;2801;50.972;7.856;2023-03-20T01:10:52;97766.69;;;10.42
24201;BMP280;2801;50.972;7.856;2023-03-20T01:13:26;97768.09;;;10.39
24201;BMP280;2801;50.972;7.856;2023-03-20T01:15:55;97773.63;;;10.34
24201;BMP280;2801;50.972;7.856;2023-03-20T01:18:26;97779.44;;;10.36
24201;BMP280;2801;50.972;7.856;2023-03-20T01:20:53;97774.88;;;10.37
24201;BMP280;2801;50.972;7.856;2023-03-20T01:23:20;97773.31;;;10.36
24201;BMP280;2801;50.972;7.856;2023-03-20T01:25:49;97774.09;;;10.36
24201;BMP280;2801;50.972;7.856;2023-03-20T01:28:21;97780.25;;;10.37
24201;BMP280;2801;50.972;7.856;2023-03-20T01:30:49;97787.81;;;10.35
24201;BMP280;2801;50.972;7.856;2023-03-20T01:33:22;97782.44;;;10.26
24201;BMP280;2801;50.972;7.856;2023-03-20T01:35:49;97778.50;;;10.24
24201;BMP280;2801;50.972;7.856;2023-03-20T01:38:23;97780.69;;;10.22
24201;BMP280;2801;50.972;7.856;2023-03-20T01:41:04;97782.72;;;10.16
24201;BMP280;2801;50.972;7.856;2023-03-20T01:43:33;97783.66;;;10.12
24201;BMP280;2801;50.972;7.856;2023-03-20T01:46:25;97785.69;;;10.06
24201;BMP280;2801;50.972;7.856;2023-03-20T01:51:22;97781.25;;;10.02
24201;BMP280;2801;50.972;7.856;2023-03-20T01:53:57;97787.38;;;9.94
24201;BMP280;2801;50.972;7.856;2023-03-20T01:56:28;97786.09;;;9.91
24201;BMP280;2801;50.972;7.856;2023-03-20T01:59:01;97787.16;;;9.82
24201;BMP280;2801;50.972;7.856;2023-03-20T02:01:30;97791.84;;;9.76
24201;BMP280;2801;50.972;7.856;2023-03-20T02:03:57;97785.53;;;9.64
24201;BMP280;2801;50.972;7.856;2023-03-20T02:06:25;97793.22;;;9.57
24201;BMP280;2801;50.972;7.856;2023-03-20T02:08:52;97788.63;;;9.49
24201;BMP280;2801;50.972;7.856;2023-03-20T02:11:23;97790.75;;;9.38
24201;BMP280;2801;50.972;7.856;2023-03-20T02:13:54;97785.84;;;9.32
24201;BMP280;2801;50.972;7.856;2023-03-20T02:16:22;97798.75;;;9.30
24201;BMP280;2801;50.972;7.856;2023-03-20T02:18:52;97794.78;;;9.27
24201;BMP280;2801;50.972;7.856;2023-03-20T02:24:50;97800.50;;;9.12
24201;BMP280;2801;50.972;7.856;2023-03-20T02:30:55;97805.16;;;8.98
24201;BMP280;2801;50.972;7.856;2023-03-20T02:37:35;97801.72;;;8.84
24201;BMP280;2801;50.972;7.856;2023-03-20T02:40:32;97802.63;;;8.80
24201;BMP280;2801;50.972;7.856;2023-03-20T02:43:27;97797.09;;;8.76
24201;BMP280;2801;50.972;7.856;2023-03-20T03:01:08;97820.63;;;8.66
24201;BMP280;2801;50.972;7.856;2023-03-20T03:03:46;97817.44;;;8.64
24201;BMP280;2801;50.972;7.856;2023-03-20T03:06:27;97816.97;;;8.62
24201;BMP280;2801;50.972;7.856;2023-03-20T03:09:02;97818.25;;;8.64
24201;BMP280;2801;50.972;7.856;2023-03-20T03:11:41;97816.34;;;8.65
24201;BMP280;2801;50.972;7.856;2023-03-20T03:14:45;97812.91;;;8.64
24201;BMP280;2801;50.972;7.856;2023-03-20T03:17:16;97808.63;;;8.63
24201;BMP280;2801;50.972;7.856;2023-03-20T03:19:52;97806.44;;;8.65
24201;BMP280;2801;50.972;7.856;2023-03-20T03:22:20;97805.06;;;8.68
24201;BMP280;2801;50.972;7.856;2023-03-20T03:24:50;97811.66;;;8.70
24201;BMP280;2801;50.972;7.856;2023-03-20T03:27:40;97819.22;;;8.68
24201;BMP280;2801;50.972;7.856;2023-03-20T03:30:16;97825.03;;;8.70
24201;BMP280;2801;50.972;7.856;2023-03-20T03:35:24;97819.59;;;8.75
24201;BMP280;2801;50.972;7.856;2023-03-20T03:38:38;97817.38;;;8.77
24201;BMP280;2801;50.972;7.856;2023-03-20T03:41:34;97826.31;;;8.73
24201;BMP280;2801;50.972;7.856;2023-03-20T03:44:27;97836.22;;;8.72
24201;BMP280;2801;50.972;7.856;2023-03-20T03:47:03;97841.88;;;8.71
24201;BMP280;2801;50.972;7.856;2023-03-20T03:49:36;97840.59;;;8.68
24201;BMP280;2801;50.972;7.856;2023-03-20T03:52:11;97853.47;;;8.66
24201;BMP280;2801;50.972;7.856;2023-03-20T03:55:06;97857.22;;;8.65
24201;BMP280;2801;50.972;7.856;2023-03-20T03:57:44;97859.00;;;8.70
24201;BMP280;2801;50.972;7.856;2023-03-20T04:00:18;97852.88;;;8.69
24201;BMP280;2801;50.972;7.856;2023-03-20T04:02:52;97852.06;;;8.69
24201;BMP280;2801;50.972;7.856;2023-03-20T04:05:21;97846.91;;;8.72
24201;BMP280;2801;50.972;7.856;2023-03-20T04:07:54;97848.03;;;8.71
24201;BMP280;2801;50.972;7.856;2023-03-20T04:10:22;97842.34;;;8.73
24201;BMP280;2801;50.972;7.856;2023-03-20T04:12:49;97845.22;;;8.76
24201;BMP280;2801;50.972;7.856;2023-03-20T04:15:16;97840.97;;;8.75
24201;BMP280;2801;50.972;7.856;2023-03-20T04:17:44;97828.97;;;8.73
24201;BMP280;2801;50.972;7.856;2023-03-20T04:20:12;97821.16;;;8.76
24201;BMP280;2801;50.972;7.856;2023-03-20T04:22:39;97804.16;;;8.72
24201;BMP280;2801;50.972;7.856;2023-03-20T04:25:14;97824.44;;;8.73
24201;BMP280;2801;50.972;7.856;2023-03-20T04:27:41;97824.44;;;8.73
24201;BMP280;2801;50.972;7.856;2023-03-20T04:30:10;97826.44;;;8.68
24201;BMP280;2801;50.972;7.856;2023-03-20T04:32:36;97825.75;;;8.62
24201;BMP280;2801;50.972;7.856;2023-03-20T04:35:04;97810.81;;;8.61
24201;BMP280;2801;50.972;7.856;2023-03-20T04:37:31;97805.28;;;8.58
24201;BMP280;2801;50.972;7.856;2023-03-20T04:39:58;97807.16;;;8.57
24201;BMP280;2801;50.972;7.856;2023-03-20T04:42:25;97806.97;;;8.54
24201;BMP280;2801;50.972;7.856;2023-03-20T04:44:52;97815.31;;;8.52
24201;BMP280;2801;50.972;7.856;2023-03-20T04:47:19;97807.28;;;8.52
24201;BMP280;2801;50.972;7.856;2023-03-20T04:49:46;97810.25;;;8.51
24201;BMP280;2801;50.972;7.856;2023-03-20T04:52:13;97814.31;;;8.48
24201;BMP280;2801;50.972;7.856;2023-03-20T04:54:40;97821.03;;;8.46
24201;BMP280;2801;50.972;7.856;2023-03-20T04:57:06;97827.19;;;8.46
24201;BMP280;2801;50.972;7.856;2023-03-20T04:59:33;97832.22;;;8.48
24201;BMP280;2801;50.972;7.856;2023-03-20T05:02:00;97830.97;;;8.45
24201;BMP280;2801;50.972;7.856;2023-03-20T05:04:27;97822.66;;;8.47
24201;BMP280;2801;50.972;7.856;2023-03-20T05:06:54;97836.78;;;8.47
24201;BMP280;2801;50.972;7.856;2023-03-20T05:09:22;97827.19;;;8.46
24201;BMP280;2801;50.972;7.856;2023-03-20T05:11:49;97823.13;;;8.49
24201;BMP280;2801;50.972;7.856;2023-03-20T05:14:16;97827.66;;;8.48
24201;BMP280;2801;50.972;7.856;2023-03-20T05:16:43;97826.09;;;8.47
24201;BMP280;2801;50.972;7.856;2023-03-20T05:19:09;97817.78;;;8.49
24201;BMP280;2801;50.972;7.856;2023-03-20T05:21:38;97824.22;;;8.48
24201;BMP280;2801;50.972;7.856;2023-03-20T05:24:05;97814.31;;;8.48
24201;BMP280;2801;50.972;7.856;2023-03-20T05:26:32;97814.31;;;8.48
24201;BMP280;2801;50.972;7.856;2023-03-20T05:28:59;97815.59;;;8.51
24201;BMP280;2801;50.972;7.856;2023-03-20T05:31:26;97814.50;;;8.52
24201;BMP280;2801;50.972;7.856;2023-03-20T05:33:53;97817.97;;;8.52
24201;BMP280;2801;50.972;7.856;2023-03-20T05:36:19;97819.56;;;8.53
24201;BMP280;2801;50.972;7.856;2023-03-20T05:38:46;97821.41;;;8.53
24201;BMP280;2801;50.972;7.856;2023-03-20T05:41:13;97819.56;;;8.53
24201;BMP280;2801;50.972;7.856;2023-03-20T05:43:40;97835.28;;;8.55
24201;BMP280;2801;50.972;7.856;2023-03-20T05:46:07;97821.94;;;8.55
24201;BMP280;2801;50.972;7.856;2023-03-20T05:48:34;97825.59;;;8.59
24201;BMP280;2801;50.972;7.856;2023-03-20T05:51:01;97812.50;;;8.57
24201;BMP280;2801;50.972;7.856;2023-03-20T05:53:28;97816.28;;;8.56
24201;BMP280;2801;50.972;7.856;2023-03-20T05:55:55;97811.25;;;8.55
24201;BMP280;2801;50.972;7.856;2023-03-20T05:58:22;97813.91;;;8.55
24201;BMP280;2801;50.972;7.856;2023-03-20T06:00:49;97805.38;;;8.53
24201;BMP280;2801;50.972;7.856;2023-03-20T06:03:16;97805.38;;;8.53
24201;BMP280;2801;50.972;7.856;2023-03-20T06:05:43;97801.63;;;8.54
24201;BMP280;2801;50.972;7.856;2023-03-20T06:08:11;97812.63;;;8.52
24201;BMP280;2801;50.972;7.856;2023-03-20T06:10:38;97814.38;;;8.57
24201;BMP280;2801;50.972;7.856;2023-03-20T06:13:05;97815.66;;;8.59
24201;BMP280;2801;50.972;7.856;2023-03-20T06:15:32;97813.50;;;8.61
24201;BMP280;2801;50.972;7.856;2023-03-20T06:17:59;97825.97;;;8.66
24201;BMP280;2801;50.972;7.856;2023-03-20T06:20:26;97826.94;;;8.70
24201;BMP280;2801;50.972;7.856;2023-03-20T06:22:53;97831.97;;;8.71
24201;BMP280;2801;50.972;7.856;2023-03-20T06:25:20;97830.09;;;8.72
24201;BMP280;2801;50.972;7.856;2023-03-20T06:27:47;97833.72;;;8.76
24201;BMP280;2801;50.972;7.856;2023-03-20T06:30:15;97826.44;;;8.68
24201;BMP280;2801;50.972;7.856;2023-03-20T06:32:43;97837.00;;;8.73
24201;BMP280;2801;50.972;7.856;2023-03-20T06:35:10;97831.66;;;8.73
24201;BMP280;2801;50.972;7.856;2023-03-20T06:37:38;97826.00;;;8.74
24201;BMP280;2801;50.972;7.856;2023-03-20T06:40:06;97818.19;;;8.78
24201;BMP280;2801;50.972;7.856;2023-03-20T06:42:33;97834.53;;;8.76
24201;BMP280;2801;50.972;7.856;2023-03-20T06:45:00;97830.75;;;8.77
24201;BMP280;2801;50.972;7.856;2023-03-20T06:47:27;97825.91;;;8.79
24201;BMP280;2801;50.972;7.856;2023-03-20T06:49:54;97817.09;;;8.79
24201;BMP280;2801;50.972;7.856;2023-03-20T06:52:22;97810.94;;;8.78
24201;BMP280;2801;50.972;7.856;2023-03-20T06:54:49;97804.63;;;8.74
24201;BMP280;2801;50.972;7.856;2023-03-20T06:57:17;97816.63;;;8.77
24201;BMP280;2801;50.972;7.856;2023-03-20T06:59:44;97814.41;;;8.79
24201;BMP280;2801;50.972;7.856;2023-03-20T07:02:11;97814.41;;;8.79
24201;BMP280;2801;50.972;7.856;2023-03-20T07:04:38;97815.41;;;8.83
24201;BMP280;2801;50.972;7.856;2023-03-20T07:07:05;97817.75;;;8.84
24201;BMP280;2801;50.972;7.856;2023-03-20T07:09:32;97824.09;;;8.88
24201;BMP280;2801;50.972;7.856;2023-03-20T07:11:59;97824.47;;;8.95
24201;BMP280;2801;50.972;7.856;2023-03-20T07:14:26;97819.63;;;8.97
24201;BMP280;2801;50.972;7.856;2023-03-20T07:16:53;97834.25;;;9.00
24201;BMP280;2801;50.972;7.856;2023-03-20T07:19:22;97835.69;;;9.06
24201;BMP280;2801;50.972;7.856;2023-03-20T07:21:54;97841.31;;;8.96
24201;BMP280;2801;50.972;7.856;2023-03-20T07:24:23;97854.78;;;8.91
24201;BMP280;2801;50.972;7.856;2023-03-20T07:26:50;97852.41;;;8.89
24201;BMP280;2801;50.972;7.856;2023-03-20T07:29:17;97861.34;;;8.85
24201;BMP280;2801;50.972;7.856;2023-03-20T07:31:44;97862.25;;;8.80
24201;BMP280;2801;50.972;7.856;2023-03-20T07:34:11;97869.47;;;8.80
24201;BMP280;2801;50.972;7.856;2023-03-20T07:36:40;97862.53;;;8.79
24201;BMP280;2801;50.972;7.856;2023-03-20T07:39:12;97867.59;;;8.80
24201;BMP280;2801;50.972;7.856;2023-03-20T07:41:39;97864.13;;;8.80
24201;BMP280;2801;50.972;7.856;2023-03-20T07:44:06;97880.66;;;8.82
24201;BMP280;2801;50.972;7.856;2023-03-20T07:46:33;97884.72;;;8.79
24201;BMP280;2801;50.972;7.856;2023-03-20T07:49:00;97893.13;;;8.73
24201;BMP280;2801;50.972;7.856;2023-03-20T07:51:27;97884.94;;;8.69
24201;BMP280;2801;50.972;7.856;2023-03-20T07:53:54;97878.50;;;8.70
24201;BMP280;2801;50.972;7.856;2023-03-20T07:56:21;97880.28;;;8.75
24201;BMP280;2801;50.972;7.856;2023-03-20T07:58:48;97878.09;;;8.77
24201;BMP280;2801;50.972;7.856;2023-03-20T08:01:15;97881.47;;;8.82
24201;BMP280;2801;50.972;7.856;2023-03-20T08:03:42;97872.63;;;8.82
24201;BMP280;2801;50.972;7.856;2023-03-20T08:06:09;97875.19;;;8.87
24201;BMP280;2801;50.972;7.856;2023-03-20T08:08:36;97878.66;;;8.87
24201;BMP280;2801;50.972;7.856;2023-03-20T08:11:03;97877.75;;;8.92
24201;BMP280;2801;50.972;7.856;2023-03-20T08:13:30;97879.50;;;8.96
24201;BMP280;2801;50.972;7.856;2023-03-20T08:15:57;97879.09;;;9.03
24201;BMP280;2801;50.972;7.856;2023-03-20T08:18:24;97882.78;;;9.07
24201;BMP280;2801;50.972;7.856;2023-03-20T08:20:51;97895.72;;;9.13
24201;BMP280;2801;50.972;7.856;2023-03-20T08:23:18;97890.84;;;9.15
24201;BMP280;2801;50.972;7.856;2023-03-20T08:25:48;97904.13;;;9.20
24201;BMP280;2801;50.972;7.856;2023-03-20T08:28:16;97902.22;;;9.21
24201;BMP280;2801;50.972;7.856;2023-03-20T08:30:43;97905.69;;;9.21
24201;BMP280;2801;50.972;7.856;2023-03-20T08:33:11;97890.59;;;9.25
24201;BMP280;2801;50.972;7.856;2023-03-20T08:35:39;97902.59;;;9.28
24201;BMP280;2801;50.972;7.856;2023-03-20T08:38:06;97909.03;;;9.27
24201;BMP280;2801;50.972;7.856;2023-03-20T08:40:33;97906.66;;;9.25
24201;BMP280;2801;50.972;7.856;2023-03-20T08:42:59;97914.69;;;9.25
24201;BMP280;2801;50.972;7.856;2023-03-20T08:45:26;97911.84;;;9.22
24201;BMP280;2801;50.972;7.856;2023-03-20T08:47:53;97912.91;;;9.21
24201;BMP280;2801;50.972;7.856;2023-03-20T08:50:20;97911.94;;;9.17
24201;BMP280;2801;50.972;7.856;2023-03-20T08:52:47;97909.47;;;9.20
24201;BMP280;2801;50.972;7.856;2023-03-20T08:55:14;97900.22;;;9.26
24201;BMP280;2801;50.972;7.856;2023-03-20T08:57:42;97901.75;;;9.41
24201;BMP280;2801;50.972;7.856;2023-03-20T09:00:13;97903.56;;;9.54
24201;BMP280;2801;50.972;7.856;2023-03-20T09:02:42;97900.34;;;9.65
24201;BMP280;2801;50.972;7.856;2023-03-20T09:05:10;97911.22;;;9.69
24201;BMP280;2801;50.972;7.856;2023-03-20T09:07:37;97913.72;;;9.65
24201;BMP280;2801;50.972;7.856;2023-03-20T09:10:05;97915.47;;;9.70
24201;BMP280;2801;50.972;7.856;2023-03-20T09:12:32;97910.84;;;9.62
24201;BMP280;2801;50.972;7.856;2023-03-20T09:14:59;97909.06;;;9.57
24201;BMP280;2801;50.972;7.856;2023-03-20T09:17:27;97911.75;;;9.57
24201;BMP280;2801;50.972;7.856;2023-03-20T09:19:53;97916.03;;;9.58
24201;BMP280;2801;50.972;7.856;2023-03-20T09:22:20;97903.72;;;9.57
24201;BMP280;2801;50.972;7.856;2023-03-20T09:24:47;97914.69;;;9.69
24201;BMP280;2801;50.972;7.856;2023-03-20T09:27:14;97920.00;;;9.91
24201;BMP280;2801;50.972;7.856;2023-03-20T09:29:42;97918.44;;;10.21
24201;BMP280;2801;50.972;7.856;2023-03-20T09:32:12;97914.09;;;10.42
24201;BMP280;2801;50.972;7.856;2023-03-20T09:34:40;97915.38;;;10.44
24201;BMP280;2801;50.972;7.856;2023-03-20T09:37:07;97920.75;;;10.53
24201;BMP280;2801;50.972;7.856;2023-03-20T09:39:34;97923.50;;;10.70
24201;BMP280;2801;50.972;7.856;2023-03-20T09:42:20;97905.56;;;10.96
24201;BMP280;2801;50.972;7.856;2023-03-20T09:48:24;97904.59;;;11.60
24201;BMP280;2801;50.972;7.856;2023-03-20T09:51:25;97893.81;;;12.32
24201;BMP280;2801;50.972;7.856;2023-03-20T09:54:03;97896.66;;;13.14
24201;BMP280;2801;50.972;7.856;2023-03-20T09:56:33;97891.88;;;13.84
24201;BMP280;2801;50.972;7.856;2023-03-20T09:59:03;97889.94;;;14.29
24201;BMP280;2801;50.972;7.856;2023-03-20T10:01:43;97883.31;;;14.39
24201;BMP280;2801;50.972;7.856;2023-03-20T10:04:11;97889.75;;;14.34
24201;BMP280;2801;50.972;7.856;2023-03-20T10:06:38;97879.94;;;14.18
24201;BMP280;2801;50.972;7.856;2023-03-20T10:09:20;97884.91;;;13.83
24201;BMP280;2801;50.972;7.856;2023-03-20T10:17:47;97876.84;;;13.51
24201;BMP280;2801;50.972;7.856;2023-03-20T10:20:24;97881.13;;;13.31
24201;BMP280;2801;50.972;7.856;2023-03-20T10:23:03;97882.28;;;13.10
24201;BMP280;2801;50.972;7.856;2023-03-20T10:26:05;97874.03;;;12.86
24201;BMP280;2801;50.972;7.856;2023-03-20T10:28:57;97884.97;;;12.81
24201;BMP280;2801;50.972;7.856;2023-03-20T10:31:51;97891.00;;;12.78
24201;BMP280;2801;50.972;7.856;2023-03-20T10:40:28;97882.84;;;12.95
24201;BMP280;2801;50.972;7.856;2023-03-20T10:43:01;97878.25;;;12.95
24201;BMP280;2801;50.972;7.856;2023-03-20T10:45:45;97874.97;;;12.90
24201;BMP280;2801;50.972;7.856;2023-03-20T10:48:28;97871.19;;;12.82
24201;BMP280;2801;50.972;7.856;2023-03-20T10:51:00;97867.16;;;12.76
24201;BMP280;2801;50.972;7.856;2023-03-20T10:56:12;97865.66;;;12.58
24201;BMP280;2801;50.972;7.856;2023-03-20T10:58:46;97859.53;;;12.49
24201;BMP280;2801;50.972;7.856;2023-03-20T11:01:14;97861.69;;;12.35
24201;BMP280;2801;50.972;7.856;2023-03-20T11:03:44;97864.88;;;12.29
24201;BMP280;2801;50.972;7.856;2023-03-20T11:06:19;97865.06;;;12.24
24201;BMP280;2801;50.972;7.856;2023-03-20T11:08:51;97860.81;;;12.23
24201;BMP280;2801;50.972;7.856;2023-03-20T11:11:33;97860.03;;;12.14
24201;BMP280;2801;50.972;7.856;2023-03-20T11:14:17;97855.00;;;12.12
24201;BMP280;2801;50.972;7.856;2023-03-20T11:16:53;97860.41;;;12.04
24201;BMP280;2801;50.972;7.856;2023-03-20T11:19:23;97855.34;;;12.02
24201;BMP280;2801;50.972;7.856;2023-03-20T11:21:59;97859.63;;;12.03
24201;BMP280;2801;50.972;7.856;2023-03-20T11:24:48;97855.47;;;12.14
24201;BMP280;2801;50.972;7.856;2023-03-20T11:27:40;97851.16;;;12.22
24201;BMP280;2801;50.972;7.856;2023-03-20T11:30:12;97853.94;;;12.34
24201;BMP280;2801;50.972;7.856;2023-03-20T11:32:49;97853.09;;;12.42
24201;BMP280;2801;50.972;7.856;2023-03-20T11:38:08;97847.97;;;12.28
24201;BMP280;2801;50.972;7.856;2023-03-20T11:40:36;97839.63;;;12.21
24201;BMP280;2801;50.972;7.856;2023-03-20T11:43:12;97842.66;;;12.11
24201;BMP280;2801;50.972;7.856;2023-03-20T11:45:48;97847.09;;;12.07
24201;BMP280;2801;50.972;7.856;2023-03-20T11:48:20;97849.16;;;12.10
24201;BMP280;2801;50.972;7.856;2023-03-20T11:51:02;97842.63;;;12.20
24201;BMP280;2801;50.972;7.856;2023-03-20T11:56:25;97833.03;;;12.39
24201;BMP280;2801;50.972;7.856;2023-03-20T11:59:00;97831.56;;;12.50
24201;BMP280;2801;50.972;7.856;2023-03-20T12:01:40;97829.34;;;12.44
24201;BMP280;2801;50.972;7.856;2023-03-20T12:04:33;97829.19;;;12.49
24201;BMP280;2801;50.972;7.856;2023-03-20T12:07:42;97823.88;;;12.61
24201;BMP280;2801;50.972;7.856;2023-03-20T12:10:13;97823.69;;;12.66
24201;BMP280;2801;50.972;7.856;2023-03-20T12:12:53;97814.56;;;12.58
24201;BMP280;2801;50.972;7.856;2023-03-20T12:15:30;97810.28;;;12.57
24201;BMP280;2801;50.972;7.856;2023-03-20T12:23:55;97808.78;;;12.48
24201;BMP280;2801;50.972;7.856;2023-03-20T12:26:35;97804.84;;;12.45
24201;BMP280;2801;50.972;7.856;2023-03-20T12:29:45;97803.75;;;12.46
24201;BMP280;2801;50.972;7.856;2023-03-20T12:32:41;97801.69;;;12.43
24201;BMP280;2801;50.972;7.856;2023-03-20T12:35:31;97799.13;;;12.47
24201;BMP280;2801;50.972;7.856;2023-03-20T12:37:59;97797.75;;;12.41
24201;BMP280;2801;50.972;7.856;2023-03-20T12:40:41;97794.47;;;12.35
24201;BMP280;2801;50.972;7.856;2023-03-20T12:43:25;97798.78;;;12.28
24201;BMP280;2801;50.972;7.856;2023-03-20T12:46:16;97801.03;;;12.26
24201;BMP280;2801;50.972;7.856;2023-03-20T12:49:11;97800.34;;;12.29
24201;BMP280;2801;50.972;7.856;2023-03-20T13:01:26;97795.25;;;11.78
24201;BMP280;2801;50.972;7.856;2023-03-20T13:07:00;97794.50;;;11.60
24201;BMP280;2801;50.972;7.856;2023-03-20T13:15:22;97790.41;;;11.63
24201;BMP280;2801;50.972;7.856;2023-03-20T13:20:53;97794.31;;;11.57
24201;BMP280;2801;50.972;7.856;2023-03-20T13:23:50;97788.97;;;11.57
24201;BMP280;2801;50.972;7.856;2023-03-20T13:26:36;97789.66;;;11.45
24201;BMP280;2801;50.972;7.856;2023-03-20T13:30:06;97789.16;;;11.34
24201;BMP280;2801;50.972;7.856;2023-03-20T13:32:26;97785.88;;;11.29
24201;BMP280;2801;50.972;7.856;2023-03-20T13:36:29;97790.28;;;11.33
24201;BMP280;2801;50.972;7.856;2023-03-20T13:39:17;97792.97;;;11.33
24201;BMP280;2801;50.972;7.856;2023-03-20T13:41:47;97789.03;;;11.31
24201;BMP280;2801;50.972;7.856;2023-03-20T13:44:17;97790.00;;;11.26
24201;BMP280;2801;50.972;7.856;2023-03-20T13:46:54;97791.59;;;11.27
24201;BMP280;2801;50.972;7.856;2023-03-20T13:49:35;97788.09;;;11.27
24201;BMP280;2801;50.972;7.856;2023-03-20T13:52:21;97787.59;;;11.33
24201;BMP280;2801;50.972;7.856;2023-03-20T13:55:25;97785.41;;;11.36
24201;BMP280;2801;50.972;7.856;2023-03-20T13:58:54;97774.47;;;11.49
24201;BMP280;2801;50.972;7.856;2023-03-20T14:02:24;97767.38;;;11.45
24201;BMP280;2801;50.972;7.856;2023-03-20T14:05:15;97776.56;;;11.35
24201;BMP280;2801;50.972;7.856;2023-03-20T14:07:46;97774.50;;;11.32
24201;BMP280;2801;50.972;7.856;2023-03-20T14:13:03;97775.78;;;11.26
24201;BMP280;2801;50.972;7.856;2023-03-20T14:15:37;97782.75;;;11.18
24201;BMP280;2801;50.972;7.856;2023-03-20T14:18:13;97768.22;;;11.19
24201;BMP280;2801;50.972;7.856;2023-03-20T14:20:43;97774.56;;;11.15
24201;BMP280;2801;50.972;7.856;2023-03-20T14:23:33;97769.50;;;10.96
24201;BMP280;2801;50.972;7.856;2023-03-20T14:26:08;97777.28;;;10.89
24201;BMP280;2801;50.972;7.856;2023-03-20T14:31:28;97769.72;;;10.74
24201;BMP280;2801;50.972;7.856;2023-03-20T14:34:20;97772.22;;;10.71
24201;BMP280;2801;50.972;7.856;2023-03-20T14:37:02;97780.91;;;10.76
24201;BMP280;2801;50.972;7.856;2023-03-20T14:40:02;97776.16;;;10.82
24201;BMP280;2801;50.972;7.856;2023-03-20T14:42:49;97775.53;;;10.76
24201;BMP280;2801;50.972;7.856;2023-03-20T14:45:36;97770.16;;;10.68
24201;BMP280;2801;50.972;7.856;2023-03-20T14:48:36;97779.31;;;10.67
24201;BMP280;2801;50.972;7.856;2023-03-20T14:54:29;97772.06;;;10.67
24201;BMP280;2801;50.972;7.856;2023-03-20T14:57:16;97769.84;;;10.69
24201;BMP280;2801;50.972;7.856;2023-03-20T14:59:48;97774.28;;;10.74
24201;BMP280;2801;50.972;7.856;2023-03-20T15:02:29;97768.09;;;10.65
24201;BMP280;2801;50.972;7.856;2023-03-20T15:04:58;97769.72;;;10.66
24201;BMP280;2801;50.972;7.856;2023-03-20T15:07:35;97772.53;;;10.61
24201;BMP280;2801;50.972;7.856;2023-03-20T15:10:04;97769.69;;;10.57
24201;BMP280;2801;50.972;7.856;2023-03-20T15:12:37;97776.63;;;10.58
24201;BMP280;2801;50.972;7.856;2023-03-20T15:15:06;97765.59;;;10.60
24201;BMP280;2801;50.972;7.856;2023-03-20T15:17:44;97760.22;;;10.60
24201;BMP280;2801;50.972;7.856;2023-03-20T15:20:22;97762.28;;;10.63
24201;BMP280;2801;50.972;7.856;2023-03-20T15:22:58;97750.63;;;10.67
24201;BMP280;2801;50.972;7.856;2023-03-20T15:25:43;97756.13;;;10.71
24201;BMP280;2801;50.972;7.856;2023-03-20T15:28:22;97760.69;;;10.79
24201;BMP280;2801;50.972;7.856;2023-03-20T15:30:54;97756.91;;;10.80
24201;BMP280;2801;50.972;7.856;2023-03-20T15:33:33;97761.19;;;10.81
24201;BMP280;2801;50.972;7.856;2023-03-20T15:36:14;97758.66;;;10.84
24201;BMP280;2801;50.972;7.856;2023-03-20T15:38:44;97761.97;;;10.90
24201;BMP280;2801;50.972;7.856;2023-03-20T15:41:27;97751.41;;;10.93
24201;BMP280;2801;50.972;7.856;2023-03-20T15:44:23;97756.75;;;10.93
24201;BMP280;2801;50.972;7.856;2023-03-20T15:49:23;97757.22;;;11.04
24201;BMP280;2801;50.972;7.856;2023-03-20T15:51:52;97753.09;;;11.06
24201;BMP280;2801;50.972;7.856;2023-03-20T15:54:20;97756.09;;;11.05
24201;BMP280;2801;50.972;7.856;2023-03-20T15:56:50;97754.53;;;11.04
24201;BMP280;2801;50.972;7.856;2023-03-20T15:59:24;97754.22;;;11.05
24201;BMP280;2801;50.972;7.856;2023-03-20T16:01:55;97758.31;;;11.03
24201;BMP280;2801;50.972;7.856;2023-03-20T16:04:23;97754.03;;;11.02
24201;BMP280;2801;50.972;7.856;2023-03-20T16:06:57;97742.53;;;11.01
24201;BMP280;2801;50.972;7.856;2023-03-20T16:09:26;97741.75;;;11.01
24201;BMP280;2801;50.972;7.856;2023-03-20T16:11:58;97740.63;;;11.02
24201;BMP280;2801;50.972;7.856;2023-03-20T16:14:32;97740.19;;;11.00
24201;BMP280;2801;50.972;7.856;2023-03-20T16:17:02;97743.34;;;10.93
24201;BMP280;2801;50.972;7.856;2023-03-20T16:19:30;97743.50;;;10.88
24201;BMP280;2801;50.972;7.856;2023-03-20T16:22:11;97743.66;;;10.83
24201;BMP280;2801;50.972;7.856;2023-03-20T16:24:46;97750.59;;;10.76
24201;BMP280;2801;50.972;7.856;2023-03-20T16:27:34;97742.72;;;10.71
24201;BMP280;2801;50.972;7.856;2023-03-20T16:30:15;97742.72;;;10.71
24201;BMP280;2801;50.972;7.856;2023-03-20T16:32:48;97740.22;;;10.66
24201;BMP280;2801;50.972;7.856;2023-03-20T16:35:21;97735.47;;;10.63
24201;BMP280;2801;50.972;7.856;2023-03-20T16:37:58;97735.78;;;10.61
24201;BMP280;2801;50.972;7.856;2023-03-20T16:40:35;97734.34;;;10.55
24201;BMP280;2801;50.972;7.856;2023-03-20T16:43:20;97742.25;;;10.52